createdAt,value
2022-12-03T00:01:34.978Z,13.80
2022-12-03T00:04:03.272Z,14.83
2022-12-03T00:06:34.535Z,13.20
2022-12-03T00:09:03.361Z,14.50
2022-12-03T00:11:31.518Z,14.87
2022-12-03T00:13:59.498Z,15.50
2022-12-03T00:16:28.973Z,14.57
2022-12-03T00:18:56.974Z,13.57
2022-12-03T00:21:25.104Z,14.17
2022-12-03T00:23:53.256Z,14.90
2022-12-03T00:26:21.212Z,14.67
2022-12-03T00:28:49.145Z,15.03
2022-12-03T00:31:17.568Z,15.13
2022-12-03T00:33:46.921Z,17.10
2022-12-03T00:36:14.859Z,14.37
2022-12-03T00:38:42.810Z,14.00
2022-12-03T00:41:10.814Z,15.60
2022-12-03T00:43:38.774Z,15.10
2022-12-03T00:46:07.079Z,13.43
2022-12-03T00:48:35.039Z,14.90
2022-12-03T00:51:04.370Z,14.67
2022-12-03T00:53:32.377Z,14.30
2022-12-03T00:56:01.533Z,13.77
2022-12-03T00:58:29.473Z,14.60
2022-12-03T01:00:57.390Z,13.43
2022-12-03T01:03:25.354Z,13.80
2022-12-03T01:05:53.277Z,15.70
2022-12-03T01:08:22.558Z,13.90
2022-12-03T01:10:50.504Z,12.57
2022-12-03T01:13:18.429Z,14.17
2022-12-03T01:15:46.454Z,13.07
2022-12-03T01:18:14.407Z,13.33
2022-12-03T01:20:42.399Z,14.60
2022-12-03T01:23:10.503Z,14.50
2022-12-03T01:25:39.754Z,13.80
2022-12-03T01:28:07.694Z,14.60
2022-12-03T01:30:55.641Z,14.83
2022-12-03T01:33:22.603Z,16.10
2022-12-03T01:35:50.553Z,15.47
2022-12-03T01:38:18.433Z,16.10
2022-12-03T01:40:49.845Z,15.80
2022-12-03T01:43:17.863Z,15.87
2022-12-03T01:45:45.791Z,16.10
2022-12-03T01:48:16.555Z,17.30
2022-12-03T01:50:45.284Z,17.63
2022-12-03T01:53:18.232Z,15.70
2022-12-03T01:55:49.012Z,13.70
2022-12-03T01:58:18.851Z,18.53
2022-12-03T02:00:46.794Z,18.80
2022-12-03T02:03:19.761Z,17.50
2022-12-03T02:05:48.069Z,19.30
2022-12-03T02:08:32.910Z,19.50
2022-12-03T02:11:04.326Z,17.20
2022-12-03T02:13:32.874Z,20.00
2022-12-03T02:16:02.719Z,21.43
2022-12-03T02:18:30.777Z,20.53
2022-12-03T02:21:06.361Z,19.97
2022-12-03T02:23:41.224Z,20.63
2022-12-03T02:26:11.013Z,25.00
2022-12-03T02:28:39.123Z,22.37
2022-12-03T02:31:07.900Z,24.43
2022-12-03T02:33:37.136Z,21.40
2022-12-03T02:36:05.669Z,22.40
2022-12-03T02:38:35.482Z,22.33
2022-12-03T02:41:06.517Z,23.30
2022-12-03T02:43:34.897Z,21.17
2022-12-03T02:46:04.826Z,21.13
2022-12-03T02:48:35.568Z,21.70
2022-12-03T02:51:06.529Z,20.77
2022-12-03T02:53:38.824Z,23.23
2022-12-03T02:56:07.730Z,22.07
2022-12-03T02:58:37.253Z,22.60
2022-12-03T03:01:06.171Z,21.27
2022-12-03T03:03:34.460Z,22.00
2022-12-03T03:06:03.659Z,23.23
2022-12-03T03:08:32.194Z,31.63
2022-12-03T03:11:02.078Z,23.13
2022-12-03T03:13:31.837Z,23.17
2022-12-03T03:16:05.760Z,23.80
2022-12-03T03:18:34.204Z,23.20
2022-12-03T03:21:02.569Z,22.43
2022-12-03T03:23:30.697Z,24.03
2022-12-03T03:26:01.827Z,24.33
2022-12-03T03:28:31.482Z,23.33
2022-12-03T03:31:01.601Z,26.03
2022-12-03T03:33:32.358Z,23.40
2022-12-03T03:36:03.138Z,27.40
2022-12-03T03:38:32.024Z,25.60
2022-12-03T03:41:02.536Z,25.63
2022-12-03T03:43:33.212Z,25.23
2022-12-03T03:46:02.879Z,24.40
2022-12-03T03:48:34.078Z,25.40
2022-12-03T03:51:08.646Z,27.83
2022-12-03T03:53:37.508Z,26.20
2022-12-03T03:56:05.874Z,23.90
2022-12-03T03:58:33.957Z,24.00
2022-12-03T04:01:01.987Z,27.30
2022-12-03T04:03:29.999Z,26.83
2022-12-03T04:05:59.460Z,24.90
2022-12-03T04:08:27.390Z,25.10
2022-12-03T04:11:12.952Z,23.80
2022-12-03T04:13:40.888Z,26.30
2022-12-03T04:16:08.902Z,24.90
2022-12-03T04:18:45.704Z,26.50
2022-12-03T04:21:34.801Z,26.13
2022-12-03T04:24:03.381Z,24.30
2022-12-03T04:26:48.664Z,26.10
2022-12-03T04:29:16.652Z,25.60
2022-12-03T04:32:02.204Z,25.37
2022-12-03T04:34:47.891Z,25.80
2022-12-03T04:37:17.577Z,24.70
2022-12-03T04:39:45.577Z,25.70
2022-12-03T04:42:13.797Z,27.07
2022-12-03T04:44:41.746Z,25.13
2022-12-03T04:47:11.945Z,25.97
2022-12-03T04:49:41.697Z,26.93
2022-12-03T04:52:10.493Z,27.30
2022-12-03T04:54:40.191Z,25.77
2022-12-03T04:57:09.505Z,23.87
2022-12-03T04:59:38.181Z,25.80
2022-12-03T05:02:07.473Z,27.30
2022-12-03T05:04:35.556Z,24.90
2022-12-03T05:07:03.682Z,27.27
2022-12-03T05:09:31.606Z,27.83
2022-12-03T05:12:00.942Z,27.57
2022-12-03T05:14:28.869Z,27.00
2022-12-03T05:16:56.899Z,26.43
2022-12-03T05:19:45.293Z,26.97
2022-12-03T05:22:12.204Z,25.17
2022-12-03T05:24:40.117Z,25.40
2022-12-03T05:27:09.392Z,24.53
2022-12-03T05:29:37.583Z,24.50
2022-12-03T05:32:05.851Z,24.13
2022-12-03T05:34:33.791Z,24.40
2022-12-03T05:37:01.710Z,22.60
2022-12-03T05:39:29.664Z,22.37
2022-12-03T05:42:15.549Z,25.43
2022-12-03T05:44:44.842Z,24.73
2022-12-03T05:47:12.826Z,24.77
2022-12-03T05:49:40.899Z,27.00
2022-12-03T05:52:08.823Z,26.27
2022-12-03T05:54:36.873Z,25.20
2022-12-03T05:57:05.002Z,24.37
2022-12-03T05:59:33.066Z,25.30
2022-12-03T06:02:02.636Z,25.87
2022-12-03T06:04:30.680Z,27.80
2022-12-03T06:06:58.606Z,25.60
2022-12-03T06:09:26.586Z,27.67
2022-12-03T06:11:54.548Z,23.00
2022-12-03T06:14:22.903Z,27.30
2022-12-03T06:16:50.856Z,28.77
2022-12-03T06:19:20.213Z,27.00
2022-12-03T06:21:48.156Z,30.07
2022-12-03T06:24:16.245Z,28.30
2022-12-03T06:26:44.173Z,25.90
2022-12-03T06:29:12.088Z,26.27
2022-12-03T06:31:40.204Z,29.67
2022-12-03T06:34:08.145Z,37.43
2022-12-03T06:36:37.408Z,36.20
2022-12-03T06:39:05.480Z,27.70
2022-12-03T06:41:33.414Z,35.03
2022-12-03T06:44:01.489Z,31.60
2022-12-03T06:46:29.457Z,35.90
2022-12-03T06:48:57.450Z,28.57
2022-12-03T06:51:25.361Z,29.07
2022-12-03T06:53:54.657Z,25.90
2022-12-03T06:56:22.810Z,28.07
2022-12-03T06:58:50.775Z,33.97
2022-12-03T07:01:19.251Z,30.77
2022-12-03T07:03:47.449Z,41.60
2022-12-03T07:06:15.506Z,29.10
2022-12-03T07:08:43.629Z,30.53
2022-12-03T07:11:26.889Z,30.00
2022-12-03T07:13:56.251Z,27.13
2022-12-03T07:16:27.170Z,36.50
2022-12-03T07:18:55.282Z,29.50
2022-12-03T07:21:23.509Z,30.17
2022-12-03T07:23:51.429Z,39.30
2022-12-03T07:26:22.286Z,29.70
2022-12-03T07:28:50.229Z,33.83
2022-12-03T07:31:18.274Z,29.40
2022-12-03T07:33:46.342Z,28.00
2022-12-03T07:36:14.305Z,29.17
2022-12-03T07:38:42.209Z,34.47
2022-12-03T07:41:10.197Z,31.60
2022-12-03T07:43:39.534Z,30.80
2022-12-03T07:46:08.482Z,30.20
2022-12-03T07:48:36.678Z,29.20
2022-12-03T07:51:04.733Z,25.87
2022-12-03T07:53:32.649Z,27.27
2022-12-03T07:56:00.588Z,27.17
2022-12-03T07:58:28.775Z,25.27
2022-12-03T08:00:58.484Z,42.50
2022-12-03T08:03:26.561Z,39.80
2022-12-03T08:05:54.558Z,29.50
2022-12-03T08:08:22.518Z,26.23
2022-12-03T08:10:50.532Z,35.80
2022-12-03T08:13:20.020Z,44.30
2022-12-03T08:15:48.197Z,39.17
2022-12-03T08:18:20.452Z,32.00
2022-12-03T08:20:49.886Z,28.13
2022-12-03T08:23:20.013Z,30.77
2022-12-03T08:25:48.662Z,27.60
2022-12-03T08:28:19.899Z,24.17
2022-12-03T08:30:58.984Z,30.90
2022-12-03T08:33:30.998Z,27.73
2022-12-03T08:35:59.041Z,24.87
2022-12-03T08:38:27.904Z,31.27
2022-12-03T08:40:56.347Z,29.30
2022-12-03T08:43:25.970Z,27.00
2022-12-03T08:45:54.936Z,24.23
2022-12-03T08:48:27.638Z,34.40
2022-12-03T08:50:59.348Z,35.87
2022-12-03T08:53:31.595Z,29.00
2022-12-03T08:56:01.208Z,34.60
2022-12-03T08:58:39.231Z,34.70
2022-12-03T09:01:38.222Z,38.60
2022-12-03T09:04:24.893Z,35.17
2022-12-03T09:06:55.166Z,32.73
2022-12-03T09:09:24.353Z,26.40
2022-12-03T09:11:53.850Z,29.20
2022-12-03T09:14:22.682Z,31.50
2022-12-03T09:16:51.949Z,26.77
2022-12-03T09:19:20.001Z,30.57
2022-12-03T09:21:47.928Z,29.47
2022-12-03T09:24:17.268Z,30.80
2022-12-03T09:26:45.229Z,29.60
2022-12-03T09:29:13.208Z,26.47
2022-12-03T09:31:41.386Z,28.57
2022-12-03T09:34:09.866Z,31.73
2022-12-03T09:36:37.947Z,28.77
2022-12-03T09:39:05.957Z,34.50
2022-12-03T09:41:35.300Z,31.30
2022-12-03T09:44:05.246Z,27.67
2022-12-03T09:46:35.150Z,26.10
2022-12-03T09:49:03.744Z,26.93
2022-12-03T09:51:35.332Z,28.90
2022-12-03T09:54:05.417Z,38.10
2022-12-03T09:56:37.073Z,63.17
2022-12-03T09:59:07.803Z,63.43
2022-12-03T10:01:36.042Z,37.57
2022-12-03T10:04:04.300Z,32.97
2022-12-03T10:06:32.463Z,30.77
2022-12-03T10:09:00.434Z,41.70
2022-12-03T10:11:30.082Z,48.27
2022-12-03T10:14:00.205Z,40.97
2022-12-03T10:16:30.441Z,46.43
2022-12-03T10:19:01.566Z,35.60
2022-12-03T10:21:32.555Z,31.47
2022-12-03T10:24:22.777Z,35.17
2022-12-03T10:26:53.213Z,33.00
2022-12-03T10:29:29.899Z,39.27
2022-12-03T10:32:03.113Z,34.67
2022-12-03T10:34:32.833Z,31.10
2022-12-03T10:37:12.197Z,32.13
2022-12-03T10:39:58.183Z,34.27
2022-12-03T10:42:27.730Z,46.07
2022-12-03T10:45:15.467Z,30.97
2022-12-03T10:47:44.954Z,38.37
2022-12-03T10:50:20.646Z,36.07
2022-12-03T10:52:48.607Z,31.63
2022-12-03T10:55:17.423Z,32.13
2022-12-03T10:57:46.394Z,40.33
2022-12-03T11:00:19.894Z,44.30
2022-12-03T11:02:54.967Z,40.80
2022-12-03T11:05:28.374Z,41.00
2022-12-03T11:07:57.445Z,43.93
2022-12-03T11:10:25.549Z,32.70
2022-12-03T11:13:44.137Z,38.37
2022-12-03T11:16:13.976Z,46.30
2022-12-03T11:19:03.045Z,40.03
2022-12-03T11:21:31.982Z,33.60
2022-12-03T11:24:21.673Z,37.03
2022-12-03T11:27:20.722Z,36.30
2022-12-03T11:29:59.688Z,48.23
2022-12-03T11:33:01.716Z,49.83
2022-12-03T11:35:37.595Z,43.20
2022-12-03T11:38:53.679Z,36.67
2022-12-03T11:41:25.697Z,38.30
2022-12-03T11:44:32.594Z,36.67
2022-12-03T11:47:02.324Z,39.10
2022-12-03T11:49:39.179Z,45.87
2022-12-03T11:52:22.699Z,42.60
2022-12-03T11:54:55.338Z,39.80
2022-12-03T11:57:28.636Z,53.67
2022-12-03T12:00:03.386Z,37.60
2022-12-03T12:02:31.385Z,41.63
2022-12-03T12:05:29.961Z,44.97
2022-12-03T12:07:58.376Z,42.40
2022-12-03T12:10:40.536Z,35.40
2022-12-03T12:13:25.780Z,41.73
2022-12-03T12:15:54.299Z,38.83
2022-12-03T12:18:40.406Z,45.17
2022-12-03T12:21:42.603Z,41.10
2022-12-03T12:24:35.846Z,36.67
2022-12-03T12:27:06.848Z,42.00
2022-12-03T12:29:35.525Z,43.03
2022-12-03T12:32:13.434Z,46.37
2022-12-03T12:34:42.743Z,46.90
2022-12-03T12:37:14.793Z,42.10
2022-12-03T12:39:42.767Z,38.93
2022-12-03T12:42:30.432Z,39.37
2022-12-03T12:45:07.354Z,45.57
2022-12-03T12:47:35.974Z,39.50
2022-12-03T12:50:10.263Z,42.90
2022-12-03T12:52:48.023Z,41.70
2022-12-03T12:55:17.362Z,42.77
2022-12-03T12:57:45.832Z,38.47
2022-12-03T13:00:19.194Z,46.40
2022-12-03T13:02:51.649Z,44.97
2022-12-03T13:05:19.758Z,43.87
2022-12-03T13:07:49.274Z,42.67
2022-12-03T13:10:33.407Z,45.40
2022-12-03T13:13:12.218Z,40.57
2022-12-03T13:15:45.609Z,43.60
2022-12-03T13:18:27.000Z,64.17
2022-12-03T13:20:55.940Z,54.07
2022-12-03T13:23:34.345Z,42.70
2022-12-03T13:26:21.334Z,34.63
2022-12-03T13:28:56.977Z,52.77
2022-12-03T13:31:29.657Z,45.60
2022-12-03T13:33:58.944Z,41.43
2022-12-03T13:36:37.951Z,47.97
2022-12-03T13:39:16.656Z,41.60
2022-12-03T13:42:02.439Z,43.13
2022-12-03T13:44:32.436Z,40.20
2022-12-03T13:47:03.932Z,45.73
2022-12-03T13:49:31.870Z,43.83
2022-12-03T13:51:59.823Z,40.90
2022-12-03T13:54:32.557Z,42.97
2022-12-03T13:57:02.587Z,42.90
2022-12-03T13:59:30.545Z,37.50
2022-12-03T14:01:58.569Z,39.40
2022-12-03T14:04:26.761Z,54.20
2022-12-03T14:06:54.690Z,39.10
2022-12-03T14:09:22.595Z,41.30
2022-12-03T14:12:09.837Z,47.40
2022-12-03T14:14:37.797Z,38.77
2022-12-03T14:17:06.547Z,39.00
2022-12-03T14:19:34.826Z,46.33
2022-12-03T14:22:02.887Z,39.57
2022-12-03T14:24:30.883Z,37.70
2022-12-03T14:27:00.246Z,35.10
2022-12-03T14:29:28.562Z,35.63
2022-12-03T14:31:56.554Z,31.87
2022-12-03T14:34:24.681Z,31.30
2022-12-03T14:36:52.826Z,43.50
2022-12-03T14:39:20.882Z,35.33
2022-12-03T14:42:06.573Z,38.70
2022-12-03T14:44:35.959Z,35.20
2022-12-03T14:47:04.013Z,33.80
2022-12-03T14:49:32.141Z,37.07
2022-12-03T14:52:00.258Z,37.70
2022-12-03T14:54:28.393Z,37.80
2022-12-03T14:56:56.397Z,33.63
2022-12-03T14:59:27.946Z,34.33
2022-12-03T15:01:57.771Z,38.77
2022-12-03T15:04:26.059Z,33.40
2022-12-03T15:06:54.057Z,41.30
2022-12-03T15:09:22.047Z,38.07
2022-12-03T15:11:50.140Z,45.30
2022-12-03T15:14:18.319Z,41.60
2022-12-03T15:16:46.415Z,41.30
2022-12-03T15:19:16.135Z,36.40
2022-12-03T15:21:44.179Z,42.30
2022-12-03T15:24:12.406Z,36.50
2022-12-03T15:26:40.457Z,39.90
2022-12-03T15:29:08.471Z,46.07
2022-12-03T15:31:36.587Z,37.97
2022-12-03T15:34:05.071Z,45.50
2022-12-03T15:36:36.847Z,33.90
2022-12-03T15:39:04.970Z,37.77
2022-12-03T15:41:33.064Z,41.33
2022-12-03T15:44:02.751Z,35.10
2022-12-03T15:46:32.036Z,35.70
2022-12-03T15:49:00.195Z,48.17
2022-12-03T15:51:28.181Z,39.47
2022-12-03T15:53:57.535Z,41.20
2022-12-03T15:56:25.493Z,39.00
2022-12-03T15:58:53.600Z,41.27
2022-12-03T16:01:21.561Z,41.37
2022-12-03T16:03:49.552Z,39.77
2022-12-03T16:06:18.136Z,43.50
2022-12-03T16:08:46.245Z,31.27
2022-12-03T16:11:15.546Z,39.43
2022-12-03T16:13:43.560Z,40.60
2022-12-03T16:16:11.597Z,40.00
2022-12-03T16:18:39.581Z,37.70
2022-12-03T16:21:07.620Z,41.83
2022-12-03T16:23:35.768Z,40.60
2022-12-03T16:26:03.736Z,38.87
2022-12-03T16:28:33.101Z,39.17
2022-12-03T16:31:01.217Z,40.57
2022-12-03T16:33:29.224Z,40.07
2022-12-03T16:35:57.214Z,41.47
2022-12-03T16:38:25.136Z,42.90
2022-12-03T16:40:53.043Z,40.60
2022-12-03T16:43:20.966Z,47.20
2022-12-03T16:46:09.823Z,39.00
2022-12-03T16:48:37.989Z,40.40
2022-12-03T16:51:06.141Z,42.70
2022-12-03T16:53:34.185Z,57.10
2022-12-03T16:56:02.405Z,50.97
2022-12-03T16:58:32.427Z,37.57
2022-12-03T17:01:01.781Z,56.30
2022-12-03T17:03:33.808Z,36.70
2022-12-03T17:06:02.241Z,46.80
2022-12-03T17:08:30.524Z,42.83
2022-12-03T17:10:58.710Z,69.80
2022-12-03T17:13:26.684Z,40.87
2022-12-03T17:15:54.828Z,59.77
2022-12-03T17:18:27.566Z,51.00
2022-12-03T17:20:55.517Z,65.23
2022-12-03T17:23:23.519Z,45.83
2022-12-03T17:25:51.476Z,49.33
2022-12-03T17:28:19.557Z,147.77
2022-12-03T17:30:50.149Z,42.53
2022-12-03T17:33:18.222Z,66.30
2022-12-03T17:35:47.576Z,47.70
2022-12-03T17:38:16.349Z,71.97
2022-12-03T17:40:44.396Z,66.80
2022-12-03T17:43:12.528Z,48.23
2022-12-03T17:45:40.560Z,44.63
2022-12-03T17:48:08.603Z,47.97
2022-12-03T17:50:36.553Z,47.30
2022-12-03T17:53:07.954Z,49.80
2022-12-03T17:55:41.233Z,49.10
2022-12-03T17:58:12.401Z,51.87
2022-12-03T18:00:42.829Z,45.67
2022-12-03T18:03:13.753Z,49.93
2022-12-03T18:05:41.716Z,49.80
2022-12-03T18:08:11.240Z,62.47
2022-12-03T18:10:39.627Z,55.00
2022-12-03T18:13:07.579Z,51.97
2022-12-03T18:15:35.623Z,67.80
2022-12-03T18:18:03.667Z,53.73
2022-12-03T18:20:35.099Z,46.83
2022-12-03T18:23:03.094Z,49.00
2022-12-03T18:25:32.562Z,51.27
2022-12-03T18:28:00.577Z,47.83
2022-12-03T18:30:28.599Z,56.93
2022-12-03T18:32:56.771Z,70.53
2022-12-03T18:35:24.921Z,51.57
2022-12-03T18:37:53.622Z,75.33
2022-12-03T18:40:24.737Z,51.33
2022-12-03T18:42:54.866Z,54.77
2022-12-03T18:45:22.935Z,70.13
2022-12-03T18:47:51.067Z,51.20
2022-12-03T18:50:19.192Z,64.53
2022-12-03T18:52:47.433Z,61.20
2022-12-03T18:55:19.469Z,50.43
2022-12-03T18:57:47.473Z,61.90
2022-12-03T19:00:17.725Z,83.37
2022-12-03T19:03:04.728Z,57.90
2022-12-03T19:05:34.114Z,73.07
2022-12-03T19:08:02.711Z,58.63
2022-12-03T19:10:30.792Z,61.20
2022-12-03T19:12:58.818Z,51.07
2022-12-03T19:15:28.340Z,61.57
2022-12-03T19:17:56.405Z,47.63
2022-12-03T19:20:24.408Z,53.07
2022-12-03T19:22:52.509Z,57.60
2022-12-03T19:25:20.500Z,52.27
2022-12-03T19:27:50.054Z,48.90
2022-12-03T19:30:18.548Z,58.83
2022-12-03T19:32:51.445Z,52.17
2022-12-03T19:35:21.662Z,54.10
2022-12-03T19:37:49.879Z,60.00
2022-12-03T19:40:18.362Z,48.20
2022-12-03T19:42:46.305Z,51.00
2022-12-03T19:45:14.366Z,55.00
2022-12-03T19:47:42.371Z,53.40
2022-12-03T19:50:19.313Z,52.00
2022-12-03T19:52:50.471Z,54.23
2022-12-03T19:55:19.490Z,44.27
2022-12-03T19:57:47.583Z,51.93
2022-12-03T20:00:16.934Z,44.47
2022-12-03T20:02:44.972Z,50.87
2022-12-03T20:05:14.428Z,47.07
2022-12-03T20:07:42.666Z,49.73
2022-12-03T20:10:11.241Z,50.70
2022-12-03T20:12:39.268Z,53.87
2022-12-03T20:15:08.147Z,44.23
2022-12-03T20:17:36.713Z,47.10
2022-12-03T20:20:05.519Z,48.00
2022-12-03T20:22:34.900Z,49.73
2022-12-03T20:25:03.690Z,51.33
2022-12-03T20:27:32.558Z,54.80
2022-12-03T20:30:00.462Z,49.77
2022-12-03T20:32:28.458Z,54.00
2022-12-03T20:34:56.622Z,52.83
2022-12-03T20:37:24.596Z,50.97
2022-12-03T20:39:54.330Z,50.17
2022-12-03T20:42:22.379Z,49.80
2022-12-03T20:44:52.543Z,47.30
2022-12-03T20:47:21.011Z,48.80
2022-12-03T20:49:49.145Z,50.07
2022-12-03T20:52:17.153Z,51.93
2022-12-03T20:54:45.661Z,45.43
2022-12-03T20:57:14.959Z,52.10
2022-12-03T20:59:42.917Z,47.80
2022-12-03T21:02:11.445Z,50.53
2022-12-03T21:04:39.764Z,44.10
2022-12-03T21:07:07.728Z,44.63
2022-12-03T21:09:35.785Z,44.60
2022-12-03T21:12:03.774Z,46.50
2022-12-03T21:14:33.481Z,48.50
2022-12-03T21:17:09.748Z,56.70
2022-12-03T21:19:38.483Z,48.97
2022-12-03T21:22:07.054Z,53.63
2022-12-03T21:24:35.378Z,59.90
2022-12-03T21:27:03.653Z,47.60
2022-12-03T21:29:33.032Z,47.33
2022-12-03T21:32:01.020Z,50.10
2022-12-03T21:34:35.545Z,47.53
2022-12-03T21:37:04.659Z,54.23
2022-12-03T21:39:32.774Z,50.23
2022-12-03T21:42:19.162Z,52.93
2022-12-03T21:44:50.787Z,49.50
2022-12-03T21:47:18.830Z,50.17
2022-12-03T21:49:46.830Z,48.23
2022-12-03T21:52:14.873Z,51.73
2022-12-03T21:54:42.861Z,55.50
2022-12-03T21:57:10.842Z,48.53
2022-12-03T21:59:38.797Z,49.10
2022-12-03T22:02:08.202Z,47.73
2022-12-03T22:04:36.297Z,42.90
2022-12-03T22:07:05.705Z,52.63
2022-12-03T22:09:34.368Z,48.30
2022-12-03T22:12:02.342Z,46.67
2022-12-03T22:14:30.497Z,47.80
2022-12-03T22:16:58.458Z,48.43
2022-12-03T22:19:28.431Z,49.50
2022-12-03T22:21:56.412Z,47.53
2022-12-03T22:24:24.381Z,48.13
2022-12-03T22:26:54.578Z,46.57
2022-12-03T22:29:22.629Z,46.30
2022-12-03T22:31:50.593Z,46.90
2022-12-03T22:34:18.568Z,45.60
2022-12-03T22:36:47.937Z,44.33
2022-12-03T22:39:15.900Z,45.50
2022-12-03T22:41:43.908Z,43.40
2022-12-03T22:44:12.302Z,40.30
2022-12-03T22:46:40.615Z,42.60
2022-12-03T22:49:09.136Z,38.37
2022-12-03T22:51:37.255Z,43.73
2022-12-03T22:54:06.991Z,43.03
2022-12-03T22:56:34.932Z,44.70
2022-12-03T22:59:02.854Z,38.83
2022-12-03T23:01:32.907Z,40.60
2022-12-03T23:04:01.830Z,38.13
2022-12-03T23:06:31.033Z,38.33
2022-12-03T23:08:59.768Z,37.57
2022-12-03T23:11:29.633Z,37.20
2022-12-03T23:13:58.848Z,40.83
2022-12-03T23:16:29.054Z,38.70
2022-12-03T23:18:58.895Z,39.90
2022-12-03T23:21:30.477Z,38.73
2022-12-03T23:23:58.909Z,32.80
2022-12-03T23:26:28.981Z,35.50
2022-12-03T23:28:57.606Z,40.17
2022-12-03T23:31:27.613Z,38.00
2022-12-03T23:33:56.682Z,34.60
2022-12-03T23:36:26.513Z,38.33
2022-12-03T23:38:55.218Z,41.57
2022-12-03T23:41:25.013Z,38.80
2022-12-03T23:43:54.314Z,40.90
2022-12-03T23:46:24.278Z,37.60
2022-12-03T23:48:52.988Z,39.90
2022-12-03T23:51:22.836Z,37.93
2022-12-03T23:53:52.619Z,38.13
2022-12-03T23:56:22.300Z,36.37
2022-12-03T23:58:50.604Z,36.43
